Time;durP1;ratioP1;P1;durP2;ratioP2;P2;SDS_P1;SDS_P2;PMS_P1;PMS_P2;Temp;Humidity;BMP_temperature;BMP_pressure;BME280_temperature;BME280_humidity;BME280_pressure;Samples;Min_cycle;Max_cycle;Signal;HPM_P1;HPM_P2
2021/03/14 00:02:12;;;;;;;8.10;7.18;;;3.80;73.90;;;;;;5212574;28;20065;-67
2021/03/14 00:04:43;;;;;;;8.00;7.20;;;3.80;75.00;;;;;;5217055;28;20140;-67
2021/03/14 00:07:16;;;;;;;7.85;7.07;;;3.70;75.60;;;;;;5216046;28;20041;-68
2021/03/14 00:09:47;;;;;;;8.00;7.30;;;3.80;75.50;;;;;;5218548;28;20243;-68
2021/03/14 00:12:19;;;;;;;8.18;7.47;;;3.70;75.80;;;;;;5216912;28;20057;-67
2021/03/14 00:14:50;;;;;;;8.20;7.40;;;3.70;76.30;;;;;;5215216;28;20156;-70
2021/03/14 00:17:22;;;;;;;8.05;7.35;;;3.60;77.10;;;;;;5214968;28;20098;-68
2021/03/14 00:19:54;;;;;;;7.78;7.00;;;3.60;76.30;;;;;;5218744;28;20514;-67
2021/03/14 00:22:26;;;;;;;8.07;7.30;;;3.60;76.40;;;;;;5212891;28;20480;-67
2021/03/14 00:24:57;;;;;;;8.15;7.30;;;3.50;76.70;;;;;;5212470;28;20524;-66
2021/03/14 00:27:29;;;;;;;8.40;7.55;;;3.50;77.80;;;;;;5215821;28;20464;-67
2021/03/14 00:30:01;;;;;;;8.38;7.57;;;3.40;78.00;;;;;;5211034;28;20040;-67
2021/03/14 00:32:33;;;;;;;7.97;7.22;;;3.20;78.40;;;;;;5216580;28;20072;-68
2021/03/14 00:35:10;;;;;;;8.30;7.50;;;3.30;77.00;;;;;;5217213;28;20564;-67
2021/03/14 00:37:42;;;;;;;8.55;7.63;;;3.30;77.20;;;;;;5216211;28;20045;-68
2021/03/14 00:40:25;;;;;;;8.25;7.50;;;3.30;78.20;;;;;;5216874;28;20688;-67
2021/03/14 00:43:00;;;;;;;8.88;7.97;;;3.30;78.70;;;;;;5215352;28;20053;-67
2021/03/14 00:45:37;;;;;;;8.35;7.55;;;3.30;78.00;;;;;;5216668;28;20049;-67
2021/03/14 00:48:17;;;;;;;7.60;6.93;;;3.30;78.90;;;;;;5218538;28;20040;-67
2021/03/14 00:50:49;;;;;;;8.18;7.38;;;3.40;77.00;;;;;;5214878;28;20048;-67
2021/03/14 00:53:29;;;;;;;8.18;7.47;;;3.50;72.00;;;;;;5213850;28;20041;-67
2021/03/14 00:56:03;;;;;;;7.70;7.10;;;3.60;71.70;;;;;;5213914;28;20044;-68
2021/03/14 00:58:34;;;;;;;8.13;7.43;;;3.80;73.10;;;;;;5198424;28;20045;-67
2021/03/14 01:01:06;;;;;;;8.13;7.43;;;3.90;72.10;;;;;;5215922;28;20610;-67
2021/03/14 01:03:42;;;;;;;8.00;7.30;;;4.00;72.10;;;;;;5215333;28;20059;-68
2021/03/14 01:06:14;;;;;;;8.23;7.43;;;4.00;73.70;;;;;;5216228;28;20052;-68
2021/03/14 01:08:47;;;;;;;9.55;7.65;;;4.00;73.80;;;;;;5214528;28;20056;-67
2021/03/14 01:11:19;;;;;;;8.23;7.47;;;4.00;74.20;;;;;;5216498;28;20045;-68
2021/03/14 01:14:23;;;;;;;8.43;7.63;;;4.00;73.50;;;;;;5206026;28;20049;-69
2021/03/14 01:17:07;;;;;;;8.10;7.40;;;4.00;74.30;;;;;;5200128;28;20076;-67
2021/03/14 01:19:39;;;;;;;8.20;7.50;;;4.10;73.70;;;;;;5216514;28;20044;-67
2021/03/14 01:22:10;;;;;;;8.07;7.30;;;4.10;71.50;;;;;;5213149;28;20091;-67
2021/03/14 01:24:42;;;;;;;8.38;7.60;;;4.10;72.00;;;;;;5214962;28;20779;-69
2021/03/14 01:27:13;;;;;;;8.82;8.13;;;4.20;73.60;;;;;;5215411;28;20060;-67
2021/03/14 01:29:45;;;;;;;8.50;7.70;;;4.20;72.70;;;;;;5214927;28;20037;-69
2021/03/14 01:32:17;;;;;;;8.68;7.88;;;4.10;72.30;;;;;;5216693;28;20525;-68
2021/03/14 01:34:49;;;;;;;8.20;7.50;;;4.00;73.00;;;;;;5214218;28;20051;-67
2021/03/14 01:37:21;;;;;;;8.27;7.57;;;4.00;73.50;;;;;;5214694;28;20138;-68
2021/03/14 01:39:52;;;;;;;8.27;7.57;;;4.00;74.40;;;;;;5212204;28;20041;-67
2021/03/14 01:42:30;;;;;;;8.00;7.28;;;3.90;75.20;;;;;;5215806;28;20084;-67
2021/03/14 01:45:05;;;;;;;8.25;7.55;;;3.90;75.10;;;;;;5213634;28;20559;-67
2021/03/14 01:47:39;;;;;;;8.55;7.85;;;4.00;75.80;;;;;;5216508;28;20045;-66
2021/03/14 01:50:14;;;;;;;8.40;7.70;;;4.00;74.60;;;;;;5214728;28;20407;-68
2021/03/14 01:52:48;;;;;;;8.57;7.78;;;4.10;74.50;;;;;;5215621;28;20128;-69
2021/03/14 01:55:21;;;;;;;8.60;7.80;;;4.10;74.00;;;;;;5214151;28;20191;-70
2021/03/14 01:57:53;;;;;;;8.13;7.43;;;4.10;74.20;;;;;;5215440;28;20431;-67
2021/03/14 02:00:27;;;;;;;8.35;7.65;;;4.00;74.10;;;;;;5215359;28;20045;-67
2021/03/14 02:02:58;;;;;;;7.68;7.05;;;3.90;74.40;;;;;;5217029;28;20045;-68
2021/03/14 02:05:30;;;;;;;8.02;7.43;;;3.80;74.40;;;;;;5215578;28;20158;-67
2021/03/14 02:08:02;;;;;;;8.00;7.30;;;3.70;74.30;;;;;;5217729;28;20495;-67
2021/03/14 02:10:34;;;;;;;8.02;7.43;;;3.70;74.20;;;;;;5215305;28;20549;-67
2021/03/14 02:13:44;;;;;;;8.80;8.10;;;3.70;74.50;;;;;;5214850;28;20132;-67
2021/03/14 02:16:18;;;;;;;8.10;7.50;;;3.60;73.60;;;;;;5203953;28;20041;-67
2021/03/14 02:18:55;;;;;;;8.00;7.38;;;3.50;74.40;;;;;;5214516;28;20064;-68
2021/03/14 02:21:31;;;;;;;7.60;7.00;;;3.50;74.90;;;;;;5216343;28;20132;-68
2021/03/14 02:24:07;;;;;;;7.55;6.95;;;3.40;75.10;;;;;;5214655;28;20116;-68
2021/03/14 02:26:45;;;;;;;8.20;7.50;;;3.40;74.90;;;;;;5202110;28;20073;-67
2021/03/14 02:29:19;;;;;;;7.80;7.20;;;3.40;74.20;;;;;;5215365;28;20510;-67
2021/03/14 02:31:53;;;;;;;8.38;7.68;;;3.40;74.40;;;;;;5213737;28;20639;-67
2021/03/14 02:34:30;;;;;;;8.63;7.82;;;3.40;74.00;;;;;;5214728;28;20055;-69
2021/03/14 02:37:05;;;;;;;8.07;7.47;;;3.50;73.80;;;;;;5205550;28;20557;-67
2021/03/14 02:39:38;;;;;;;8.15;7.47;;;3.40;74.50;;;;;;5214172;28;20160;-67
2021/03/14 02:42:11;;;;;;;7.47;6.88;;;3.40;74.50;;;;;;5213698;28;20159;-67
2021/03/14 02:44:49;;;;;;;8.48;7.78;;;3.40;74.80;;;;;;5213740;28;20474;-67
2021/03/14 02:47:22;;;;;;;7.95;7.35;;;3.40;75.00;;;;;;5215390;28;20449;-67
2021/03/14 02:50:09;;;;;;;7.78;7.18;;;3.30;74.90;;;;;;5216183;28;20479;-67
2021/03/14 02:52:42;;;;;;;7.70;6.95;;;3.40;75.10;;;;;;5212751;28;20510;-67
2021/03/14 02:55:16;;;;;;;7.90;7.30;;;3.30;75.60;;;;;;5214016;28;20077;-66
2021/03/14 02:57:49;;;;;;;7.57;6.97;;;3.20;75.60;;;;;;5212264;28;20510;-67
2021/03/14 03:00:24;;;;;;;7.78;7.18;;;3.20;75.40;;;;;;5211677;28;20128;-68
2021/03/14 03:02:57;;;;;;;8.02;7.32;;;3.30;74.50;;;;;;5215328;28;20049;-67
2021/03/14 03:05:29;;;;;;;8.07;7.40;;;3.30;74.70;;;;;;5214338;28;20087;-69
2021/03/14 03:08:03;;;;;;;7.90;7.30;;;3.20;75.30;;;;;;5215723;28;20120;-67
2021/03/14 03:10:43;;;;;;;7.50;6.90;;;3.20;75.10;;;;;;5210449;28;20050;-67
2021/03/14 03:13:16;;;;;;;7.78;7.18;;;3.20;75.60;;;;;;5216405;28;20140;-67
2021/03/14 03:15:47;;;;;;;7.90;7.22;;;3.20;75.50;;;;;;5212716;28;20069;-68
2021/03/14 03:18:19;;;;;;;7.60;7.00;;;3.20;74.60;;;;;;5215850;28;20482;-67
2021/03/14 03:20:54;;;;;;;7.63;6.97;;;3.20;75.10;;;;;;5212927;28;20099;-67
2021/03/14 03:23:25;;;;;;;7.88;7.28;;;3.20;74.60;;;;;;5197889;28;20136;-67
2021/03/14 03:26:00;;;;;;;7.85;7.20;;;3.30;74.60;;;;;;5213863;28;20552;-68
2021/03/14 03:28:33;;;;;;;7.95;7.35;;;3.30;74.80;;;;;;5214863;28;20115;-69
2021/03/14 03:31:04;;;;;;;8.15;7.45;;;3.30;74.20;;;;;;5208909;28;20790;-67
2021/03/14 03:33:36;;;;;;;8.27;7.65;;;3.30;74.60;;;;;;5215523;28;20430;-67
2021/03/14 03:36:08;;;;;;;8.00;7.40;;;3.30;74.60;;;;;;5213582;28;20161;-68
2021/03/14 03:38:40;;;;;;;7.80;7.20;;;3.30;75.30;;;;;;5214374;28;20049;-69
2021/03/14 03:41:14;;;;;;;7.65;7.05;;;3.20;74.50;;;;;;5217281;28;20045;-67
2021/03/14 03:43:46;;;;;;;7.75;7.15;;;3.30;74.30;;;;;;5218883;28;20073;-70
2021/03/14 03:46:19;;;;;;;7.63;7.03;;;3.20;74.80;;;;;;5216479;28;20044;-68
2021/03/14 03:48:54;;;;;;;7.57;6.97;;;3.20;74.90;;;;;;5218590;28;20687;-68
2021/03/14 03:51:29;;;;;;;7.70;7.10;;;3.20;74.80;;;;;;5218124;28;20091;-68
2021/03/14 03:54:04;;;;;;;7.88;7.28;;;3.20;75.80;;;;;;5218825;28;20422;-69
2021/03/14 03:56:37;;;;;;;7.65;7.05;;;3.10;76.20;;;;;;5214960;28;20654;-68
2021/03/14 03:59:10;;;;;;;7.72;7.13;;;3.10;76.20;;;;;;5216550;28;20048;-68
2021/03/14 04:01:45;;;;;;;7.72;7.13;;;3.10;75.40;;;;;;5217257;28;20041;-67
2021/03/14 04:04:18;;;;;;;7.70;7.10;;;3.10;75.10;;;;;;5219513;28;20131;-68
2021/03/14 04:06:56;;;;;;;8.20;7.50;;;3.10;75.00;;;;;;5215278;28;20703;-68
2021/03/14 04:09:28;;;;;;;7.43;6.82;;;3.10;75.20;;;;;;5218990;28;20087;-68
2021/03/14 04:12:00;;;;;;;7.78;7.18;;;3.10;75.40;;;;;;5212979;28;20051;-67
2021/03/14 04:14:32;;;;;;;7.78;7.18;;;3.10;76.30;;;;;;5218063;28;20122;-69
2021/03/14 04:17:05;;;;;;;8.07;7.47;;;3.00;76.20;;;;;;5213801;28;20136;-68
2021/03/14 04:19:37;;;;;;;7.63;7.03;;;3.00;76.00;;;;;;5217494;28;20049;-68
2021/03/14 04:22:09;;;;;;;7.75;7.15;;;3.00;77.40;;;;;;5207979;28;20661;-66
2021/03/14 04:24:42;;;;;;;7.82;7.22;;;3.00;75.70;;;;;;5212834;28;20441;-66
2021/03/14 04:27:15;;;;;;;7.82;7.22;;;3.00;76.20;;;;;;5215236;28;20040;-66
2021/03/14 04:29:49;;;;;;;7.80;7.20;;;2.90;76.20;;;;;;5216015;28;20076;-67
2021/03/14 04:32:23;;;;;;;7.75;7.15;;;2.90;76.20;;;;;;5213967;28;20041;-66
2021/03/14 04:34:55;;;;;;;8.02;7.43;;;2.90;76.40;;;;;;5217589;28;20049;-65
2021/03/14 04:37:27;;;;;;;7.88;7.28;;;2.90;77.10;;;;;;5211919;28;20064;-65
2021/03/14 04:40:01;;;;;;;7.72;7.13;;;2.90;77.10;;;;;;5214472;28;20476;-67
2021/03/14 04:42:33;;;;;;;8.18;7.57;;;2.80;77.70;;;;;;5206663;28;20041;-66
2021/03/14 04:45:06;;;;;;;8.35;7.65;;;2.70;77.00;;;;;;5209267;28;20083;-65
2021/03/14 04:47:43;;;;;;;7.90;7.30;;;2.80;76.70;;;;;;5204432;28;20065;-64
2021/03/14 04:50:18;;;;;;;7.88;7.28;;;2.80;76.20;;;;;;5211949;28;20072;-64
2021/03/14 04:52:54;;;;;;;7.70;7.10;;;2.90;77.00;;;;;;5208723;28;20860;-67
2021/03/14 04:55:28;;;;;;;7.50;6.90;;;2.80;78.00;;;;;;5217567;28;20049;-65
2021/03/14 04:58:02;;;;;;;7.97;7.28;;;2.80;76.90;;;;;;5212701;28;20049;-66
2021/03/14 05:00:34;;;;;;;7.97;7.38;;;2.80;76.80;;;;;;5217638;28;20033;-67
2021/03/14 05:03:11;;;;;;;8.25;7.65;;;2.80;78.10;;;;;;5217682;28;20118;-66
2021/03/14 05:05:44;;;;;;;7.85;7.25;;;2.70;78.70;;;;;;5216481;28;20438;-65
2021/03/14 05:08:19;;;;;;;8.05;7.35;;;2.60;77.60;;;;;;5215671;28;20577;-66
2021/03/14 05:10:52;;;;;;;8.15;7.45;;;2.30;79.70;;;;;;5217343;28;20155;-66
2021/03/14 05:13:24;;;;;;;7.63;7.03;;;2.20;78.30;;;;;;5203736;28;20088;-67
2021/03/14 05:15:55;;;;;;;7.88;7.28;;;2.20;76.60;;;;;;5210540;28;20041;-66
2021/03/14 05:18:27;;;;;;;7.93;7.32;;;2.30;75.70;;;;;;5213544;28;20049;-65
2021/03/14 05:20:59;;;;;;;8.30;7.60;;;2.30;74.80;;;;;;5212818;28;20072;-67
2021/03/14 05:23:34;;;;;;;8.43;7.72;;;2.30;73.70;;;;;;5212604;28;20488;-67
2021/03/14 05:26:12;;;;;;;8.20;7.50;;;2.30;72.90;;;;;;5215385;28;20313;-66
2021/03/14 05:28:45;;;;;;;7.88;7.28;;;2.30;73.60;;;;;;5212901;28;20045;-65
2021/03/14 05:31:27;;;;;;;7.68;7.05;;;2.40;73.90;;;;;;5213544;28;20037;-66
2021/03/14 05:34:02;;;;;;;8.10;7.50;;;2.40;71.10;;;;;;5214600;28;20044;-66
2021/03/14 05:36:34;;;;;;;7.57;6.90;;;2.30;71.60;;;;;;5213865;28;20045;-66
2021/03/14 05:39:07;;;;;;;7.93;7.22;;;2.40;72.00;;;;;;5198473;28;20056;-65
2021/03/14 05:41:40;;;;;;;7.88;7.20;;;2.40;71.50;;;;;;5214974;28;20041;-66
2021/03/14 05:44:12;;;;;;;7.00;6.40;;;2.50;71.40;;;;;;5214743;28;20037;-65
2021/03/14 05:46:43;;;;;;;7.50;6.90;;;2.50;71.40;;;;;;5216510;28;20067;-65
2021/03/14 05:49:15;;;;;;;7.50;6.90;;;2.40;73.60;;;;;;5217303;28;20040;-66
2021/03/14 05:51:53;;;;;;;7.43;6.82;;;2.40;73.10;;;;;;5214672;28;20540;-66
2021/03/14 05:54:25;;;;;;;7.30;6.70;;;2.40;71.90;;;;;;5215779;28;20052;-66
2021/03/14 05:57:00;;;;;;;8.15;7.40;;;2.30;72.30;;;;;;5214546;28;20180;-66
2021/03/14 05:59:32;;;;;;;8.30;7.60;;;2.30;72.00;;;;;;5211194;28;20099;-67
2021/03/14 06:02:04;;;;;;;7.68;6.85;;;2.40;72.30;;;;;;5210915;28;20048;-67
2021/03/14 06:04:37;;;;;;;7.85;7.15;;;2.40;72.00;;;;;;5214557;28;20056;-66
2021/03/14 06:07:08;;;;;;;7.85;7.25;;;2.30;71.50;;;;;;5212853;28;20128;-65
2021/03/14 06:09:40;;;;;;;7.47;6.88;;;2.30;70.80;;;;;;5215466;28;20079;-65
2021/03/14 06:12:12;;;;;;;8.05;7.30;;;2.20;71.30;;;;;;5214883;28;20587;-66
2021/03/14 06:14:44;;;;;;;8.00;7.40;;;2.20;72.00;;;;;;5215663;28;20055;-66
2021/03/14 06:17:16;;;;;;;7.47;6.88;;;2.20;72.90;;;;;;5214543;28;20457;-65
2021/03/14 06:19:48;;;;;;;7.57;6.97;;;2.10;71.00;;;;;;5209893;28;20055;-65
2021/03/14 06:22:25;;;;;;;7.55;6.95;;;2.10;70.80;;;;;;5209857;28;20534;-66
2021/03/14 06:24:57;;;;;;;7.45;6.85;;;2.10;69.20;;;;;;5213104;28;20390;-65
2021/03/14 06:27:32;;;;;;;7.30;6.70;;;2.00;69.30;;;;;;5209146;28;20045;-66
2021/03/14 06:30:08;;;;;;;7.63;6.85;;;2.00;70.30;;;;;;5211190;28;20036;-65
2021/03/14 06:33:09;;;;;;;7.55;6.85;;;1.90;70.40;;;;;;5188949;28;20045;-65
2021/03/14 06:35:51;;;;;;;7.68;6.78;;;1.80;69.50;;;;;;5203996;28;20061;-66
2021/03/14 06:38:23;;;;;;;7.53;6.82;;;1.90;69.50;;;;;;5209991;28;20056;-65
2021/03/14 06:41:07;;;;;;;7.15;6.55;;;2.00;68.00;;;;;;5202866;28;20041;-66
2021/03/14 06:43:44;;;;;;;8.98;8.18;;;1.90;68.80;;;;;;5208856;28;20041;-65
2021/03/14 06:46:31;;;;;;;8.05;7.35;;;2.00;69.60;;;;;;5204339;28;20093;-66
2021/03/14 06:49:15;;;;;;;7.00;6.40;;;2.10;70.40;;;;;;5207511;28;20055;-65
2021/03/14 06:51:58;;;;;;;7.43;6.72;;;2.30;70.50;;;;;;5209250;28;20041;-66
2021/03/14 06:54:38;;;;;;;7.28;6.68;;;2.10;67.60;;;;;;5209348;28;20315;-65
2021/03/14 06:57:22;;;;;;;7.50;6.80;;;1.90;69.00;;;;;;5208941;28;20079;-64
2021/03/14 06:59:55;;;;;;;7.75;7.05;;;2.00;68.70;;;;;;5192567;28;20108;-67
2021/03/14 07:02:29;;;;;;;7.60;6.90;;;2.10;68.20;;;;;;5209062;28;20059;-65
2021/03/14 07:05:04;;;;;;;7.47;6.70;;;2.10;67.50;;;;;;5206097;28;20064;-66
2021/03/14 07:07:43;;;;;;;7.20;6.50;;;2.10;68.80;;;;;;5196521;28;20132;-66
2021/03/14 07:10:19;;;;;;;7.40;6.70;;;2.20;68.30;;;;;;5197848;28;21241;-65
2021/03/14 07:12:50;;;;;;;7.63;6.90;;;2.20;67.90;;;;;;5204255;28;20041;-66
2021/03/14 07:15:23;;;;;;;7.25;6.55;;;2.20;68.70;;;;;;5202953;28;20049;-66
2021/03/14 07:18:02;;;;;;;7.15;6.55;;;2.20;67.60;;;;;;5198791;28;20104;-66
2021/03/14 07:20:34;;;;;;;8.90;7.32;;;2.20;67.60;;;;;;5199994;28;20892;-66
2021/03/14 07:23:08;;;;;;;11.23;9.00;;;2.20;66.20;;;;;;5198118;28;20040;-65
2021/03/14 07:25:44;;;;;;;7.40;6.70;;;2.30;68.80;;;;;;5196834;28;20072;-66
2021/03/14 07:28:17;;;;;;;7.68;7.00;;;2.40;69.30;;;;;;5198026;28;20042;-66
2021/03/14 07:30:50;;;;;;;7.80;7.10;;;2.40;69.30;;;;;;5196426;28;20118;-66
2021/03/14 07:33:21;;;;;;;8.30;7.45;;;2.50;69.00;;;;;;5204527;28;20045;-66
2021/03/14 07:35:54;;;;;;;7.65;6.93;;;2.70;68.80;;;;;;5197437;28;20119;-66
2021/03/14 07:38:25;;;;;;;7.00;6.32;;;2.80;69.60;;;;;;5201434;28;20068;-66
2021/03/14 07:40:57;;;;;;;7.18;6.57;;;2.80;67.40;;;;;;5191148;28;20057;-66
2021/03/14 07:43:29;;;;;;;6.72;6.07;;;3.00;69.10;;;;;;5197591;28;20550;-66
2021/03/14 07:46:01;;;;;;;7.10;6.50;;;3.00;69.40;;;;;;5195504;28;20099;-66
2021/03/14 07:48:34;;;;;;;7.57;6.90;;;3.00;69.70;;;;;;5199163;28;20038;-68
2021/03/14 07:51:07;;;;;;;7.20;6.55;;;3.00;67.40;;;;;;5202031;28;20098;-67
2021/03/14 07:53:53;;;;;;;6.97;6.20;;;3.10;66.80;;;;;;5198342;28;20052;-67
2021/03/14 07:56:31;;;;;;;7.30;6.60;;;3.00;67.40;;;;;;5199036;28;20159;-67
2021/03/14 07:59:05;;;;;;;7.35;6.63;;;2.90;68.80;;;;;;5196944;28;20051;-67
2021/03/14 08:01:37;;;;;;;7.75;7.13;;;2.60;69.50;;;;;;5191751;28;20142;-66
2021/03/14 08:04:32;;;;;;;8.18;7.25;;;2.70;70.00;;;;;;5198580;28;20048;-66
2021/03/14 08:07:03;;;;;;;7.57;6.80;;;2.90;70.40;;;;;;5196143;28;20132;-68
2021/03/14 08:09:53;;;;;;;8.30;7.50;;;3.10;71.20;;;;;;5200995;28;20049;-67
2021/03/14 08:12:33;;;;;;;7.03;6.43;;;3.10;70.40;;;;;;5200320;28;20110;-68
2021/03/14 08:15:26;;;;;;;8.35;7.55;;;3.10;70.90;;;;;;5200221;28;20037;-68
2021/03/14 08:17:59;;;;;;;6.95;6.35;;;3.20;70.60;;;;;;5205758;28;20048;-67
2021/03/14 08:20:38;;;;;;;7.28;6.57;;;3.10;70.40;;;;;;5206563;28;20053;-67
2021/03/14 08:23:31;;;;;;;11.95;9.38;;;3.10;71.10;;;;;;5208079;28;20131;-68
2021/03/14 08:26:25;;;;;;;11.32;9.40;;;3.10;71.40;;;;;;5205330;28;20414;-67
2021/03/14 08:29:05;;;;;;;21.30;12.90;;;3.40;70.80;;;;;;5202165;28;20064;-66
2021/03/14 08:31:50;;;;;;;26.08;15.63;;;3.60;70.50;;;;;;5207753;28;20048;-66
2021/03/14 08:34:30;;;;;;;7.70;6.90;;;3.80;70.00;;;;;;5196347;28;20103;-67
2021/03/14 08:37:22;;;;;;;8.77;7.80;;;3.90;67.90;;;;;;5203779;28;20041;-67
2021/03/14 08:40:03;;;;;;;8.00;7.30;;;4.10;69.60;;;;;;5199180;28;20117;-65
2021/03/14 08:42:57;;;;;;;9.35;8.45;;;4.40;68.80;;;;;;5210980;28;20126;-67
2021/03/14 08:45:47;;;;;;;17.08;13.38;;;4.50;67.50;;;;;;5210996;28;20462;-66
2021/03/14 08:48:33;;;;;;;9.35;8.55;;;4.60;67.50;;;;;;5206747;28;20132;-68
2021/03/14 08:51:07;;;;;;;8.38;7.68;;;4.90;67.50;;;;;;5213765;28;20799;-67
2021/03/14 08:53:44;;;;;;;8.35;7.57;;;4.80;66.10;;;;;;5213433;28;20053;-66
2021/03/14 08:56:25;;;;;;;10.00;9.10;;;4.70;65.10;;;;;;5199744;28;20053;-67
2021/03/14 08:59:09;;;;;;;8.23;7.53;;;4.80;66.00;;;;;;5203519;28;20060;-67
2021/03/14 09:01:44;;;;;;;7.93;7.22;;;4.80;63.80;;;;;;5208016;28;20041;-66
2021/03/14 09:04:35;;;;;;;7.72;7.13;;;4.90;61.60;;;;;;5207392;28;20430;-66
2021/03/14 09:07:20;;;;;;;7.85;7.15;;;5.10;61.50;;;;;;5207622;28;20037;-66
2021/03/14 09:09:54;;;;;;;8.43;7.63;;;5.00;61.10;;;;;;5212524;28;20048;-66
2021/03/14 09:12:58;;;;;;;7.43;6.80;;;5.00;61.10;;;;;;5188460;28;20426;-67
2021/03/14 09:15:48;;;;;;;7.47;6.78;;;4.80;59.30;;;;;;5185182;28;20053;-66
2021/03/14 09:18:30;;;;;;;7.15;6.55;;;4.80;56.10;;;;;;5189260;28;20104;-66
2021/03/14 09:21:11;;;;;;;7.78;6.90;;;4.60;58.10;;;;;;5184443;28;20084;-66
2021/03/14 09:23:48;;;;;;;7.15;6.53;;;4.60;59.00;;;;;;5187738;28;20053;-66
2021/03/14 09:26:30;;;;;;;8.23;7.13;;;4.90;60.90;;;;;;5197450;28;20048;-66
2021/03/14 09:29:32;;;;;;;7.40;6.70;;;5.20;60.00;;;;;;5210564;28;20045;-66
2021/03/14 09:32:14;;;;;;;6.82;6.22;;;5.40;58.10;;;;;;5188041;28;20037;-66
2021/03/14 09:34:48;;;;;;;7.30;6.60;;;4.90;56.50;;;;;;5205694;28;20061;-68
2021/03/14 09:37:28;;;;;;;6.80;6.20;;;4.70;59.10;;;;;;5208173;28;20041;-68
2021/03/14 09:40:09;;;;;;;7.57;6.88;;;4.90;57.50;;;;;;5214143;28;20055;-66
2021/03/14 09:42:45;;;;;;;7.20;6.50;;;4.90;58.70;;;;;;5210820;28;20049;-66
2021/03/14 09:45:36;;;;;;;7.38;6.68;;;5.00;57.40;;;;;;5197988;28;20061;-66
2021/03/14 09:48:13;;;;;;;8.10;7.40;;;5.00;54.50;;;;;;5193929;28;20388;-67
2021/03/14 09:50:59;;;;;;;7.10;6.50;;;4.90;58.30;;;;;;5192141;28;20067;-66
2021/03/14 09:53:36;;;;;;;7.15;6.50;;;4.50;56.10;;;;;;5211390;28;20045;-66
2021/03/14 09:56:12;;;;;;;7.22;6.57;;;4.10;58.00;;;;;;5209988;28;20049;-66
2021/03/14 09:59:05;;;;;;;7.50;6.80;;;4.00;58.50;;;;;;5207210;28;20582;-67
2021/03/14 10:01:56;;;;;;;7.97;7.30;;;4.00;60.00;;;;;;5209456;28;20056;-66
2021/03/14 10:04:29;;;;;;;7.60;6.90;;;3.80;61.60;;;;;;5196056;28;20053;-66
2021/03/14 10:07:25;;;;;;;7.80;7.20;;;3.80;61.80;;;;;;5210747;28;20044;-67
2021/03/14 10:09:59;;;;;;;7.57;6.88;;;4.00;63.80;;;;;;5203617;28;20064;-66
2021/03/14 10:12:49;;;;;;;7.80;7.00;;;4.10;64.50;;;;;;5211446;28;20045;-67
2021/03/14 10:15:25;;;;;;;7.35;6.75;;;4.30;61.80;;;;;;5206690;28;21008;-66
2021/03/14 10:18:05;;;;;;;7.13;6.50;;;4.30;62.30;;;;;;5211886;28;20048;-66
2021/03/14 10:20:38;;;;;;;6.93;6.32;;;4.30;61.00;;;;;;5205639;28;20048;-67
2021/03/14 10:23:24;;;;;;;7.05;6.45;;;4.20;62.60;;;;;;5198598;28;20463;-66
2021/03/14 10:26:16;;;;;;;6.97;6.38;;;4.10;62.70;;;;;;5208295;28;20036;-65
2021/03/14 10:28:59;;;;;;;7.30;6.60;;;4.10;61.40;;;;;;5209079;28;20596;-65
2021/03/14 10:31:51;;;;;;;7.35;6.75;;;4.00;63.00;;;;;;5203345;28;20079;-66
2021/03/14 10:34:33;;;;;;;7.32;6.72;;;4.00;61.70;;;;;;5200518;28;20183;-67
2021/03/14 10:37:24;;;;;;;7.10;6.50;;;3.90;62.80;;;;;;5206110;28;20044;-66
2021/03/14 10:39:58;;;;;;;7.20;6.60;;;4.00;59.80;;;;;;5200091;28;20046;-65
2021/03/14 10:42:35;;;;;;;6.97;6.35;;;3.90;61.00;;;;;;5205508;28;20190;-66
2021/03/14 10:45:15;;;;;;;6.90;6.30;;;3.90;62.50;;;;;;5200731;28;20066;-65
2021/03/14 10:48:05;;;;;;;7.88;6.90;;;3.80;63.40;;;;;;5199632;28;20127;-65
2021/03/14 10:50:43;;;;;;;7.25;6.55;;;4.00;63.50;;;;;;5206125;28;20095;-66
2021/03/14 10:53:20;;;;;;;7.00;6.40;;;4.10;62.70;;;;;;5185221;28;20041;-66
2021/03/14 10:56:19;;;;;;;7.10;6.40;;;4.10;63.20;;;;;;5206699;28;20538;-65
2021/03/14 10:58:54;;;;;;;6.78;6.15;;;4.20;64.30;;;;;;5207119;28;20037;-67
2021/03/14 11:01:38;;;;;;;7.60;6.90;;;4.20;62.60;;;;;;5203773;28;20048;-65
2021/03/14 11:04:11;;;;;;;7.70;7.00;;;4.30;62.40;;;;;;5210916;28;20541;-64
2021/03/14 11:06:56;;;;;;;7.63;6.93;;;4.20;62.10;;;;;;5204110;28;20050;-65
2021/03/14 11:09:31;;;;;;;7.65;6.88;;;4.20;59.40;;;;;;5208302;28;20037;-67
2021/03/14 11:12:04;;;;;;;7.57;6.93;;;4.10;61.40;;;;;;5188030;28;20044;-66
2021/03/14 11:14:40;;;;;;;7.90;7.10;;;4.20;62.80;;;;;;5207670;28;20128;-66
2021/03/14 11:17:34;;;;;;;7.80;7.10;;;4.40;60.50;;;;;;5182134;28;20072;-65
2021/03/14 11:20:34;;;;;;;8.00;7.20;;;4.60;60.50;;;;;;5195924;28;20057;-66
2021/03/14 11:23:16;;;;;;;8.18;7.38;;;4.80;59.90;;;;;;5206660;28;20049;-66
2021/03/14 11:25:48;;;;;;;7.70;7.00;;;4.90;57.40;;;;;;5181624;28;20044;-67
2021/03/14 11:28:23;;;;;;;7.90;7.20;;;5.00;58.20;;;;;;5199350;28;20056;-65
2021/03/14 11:30:55;;;;;;;8.20;7.50;;;5.20;57.30;;;;;;5192519;28;20096;-66
2021/03/14 11:33:29;;;;;;;8.25;7.55;;;5.00;55.20;;;;;;5200518;28;20521;-67
2021/03/14 11:36:09;;;;;;;8.07;7.38;;;4.80;55.80;;;;;;5202253;28;20052;-66
2021/03/14 11:38:53;;;;;;;7.53;6.93;;;5.00;56.20;;;;;;5202999;28;20056;-64
2021/03/14 11:41:37;;;;;;;7.95;7.25;;;5.10;53.70;;;;;;5198448;28;20060;-66
2021/03/14 11:44:41;;;;;;;7.63;6.93;;;5.10;54.60;;;;;;5186772;28;20061;-65
2021/03/14 11:47:13;;;;;;;7.65;6.68;;;5.10;54.40;;;;;;5202242;28;20041;-65
2021/03/14 11:50:03;;;;;;;7.22;6.53;;;5.10;54.60;;;;;;5203200;28;20088;-66
2021/03/14 11:52:34;;;;;;;7.07;6.47;;;5.20;56.30;;;;;;5200598;28;20939;-66
2021/03/14 11:55:08;;;;;;;7.35;6.70;;;5.20;54.60;;;;;;5204086;28;20131;-66
2021/03/14 11:57:40;;;;;;;7.75;7.05;;;5.20;54.50;;;;;;5201411;28;20051;-65
2021/03/14 12:00:13;;;;;;;7.20;6.50;;;5.20;55.30;;;;;;5202512;28;20049;-66
2021/03/14 12:02:46;;;;;;;7.22;6.63;;;5.30;54.40;;;;;;5208201;28;20064;-67
2021/03/14 12:05:37;;;;;;;7.47;6.70;;;5.50;55.30;;;;;;5210304;28;20195;-65
2021/03/14 12:08:24;;;;;;;15.68;6.38;;;5.80;53.80;;;;;;5212170;28;20058;-69
2021/03/14 12:10:56;;;;;;;7.20;6.50;;;5.30;52.80;;;;;;5213904;28;20041;-67
2021/03/14 12:13:37;;;;;;;7.63;6.93;;;4.90;55.10;;;;;;5204925;28;20136;-67
2021/03/14 12:16:21;;;;;;;7.25;6.55;;;4.90;55.40;;;;;;5209436;28;20037;-68
2021/03/14 12:18:53;;;;;;;6.72;6.13;;;4.80;57.10;;;;;;5212213;28;20041;-68
2021/03/14 12:21:25;;;;;;;7.00;6.40;;;4.90;58.40;;;;;;5209722;28;20053;-69
2021/03/14 12:23:58;;;;;;;7.18;6.57;;;5.20;57.70;;;;;;5209298;28;20041;-69
2021/03/14 12:26:35;;;;;;;7.32;6.63;;;5.10;55.10;;;;;;5211007;28;20053;-68
2021/03/14 12:29:15;;;;;;;8.90;8.20;;;5.10;56.50;;;;;;5210052;28;20192;-68
2021/03/14 12:31:55;;;;;;;7.45;6.85;;;5.40;56.70;;;;;;5211785;28;20541;-68
2021/03/14 12:34:27;;;;;;;7.80;7.00;;;5.10;55.10;;;;;;5211934;28;20053;-69
2021/03/14 12:37:03;;;;;;;7.90;7.20;;;5.10;57.30;;;;;;5209827;28;20034;-68
2021/03/14 12:39:39;;;;;;;9.05;8.25;;;5.60;56.40;;;;;;5211136;28;20049;-67
2021/03/14 12:42:10;;;;;;;7.75;6.93;;;5.90;55.50;;;;;;5208832;28;20128;-68
2021/03/14 12:44:44;;;;;;;8.05;6.90;;;6.10;53.70;;;;;;5192933;28;20526;-67
2021/03/14 12:47:16;;;;;;;8.00;7.30;;;6.00;54.10;;;;;;5212397;28;20037;-68
2021/03/14 12:49:48;;;;;;;7.75;7.07;;;6.00;51.80;;;;;;5210617;28;20037;-68
2021/03/14 12:52:20;;;;;;;7.97;7.28;;;5.60;54.00;;;;;;5213752;28;20706;-68
2021/03/14 12:54:51;;;;;;;8.07;7.38;;;5.80;56.60;;;;;;5209004;28;20045;-68
2021/03/14 12:57:39;;;;;;;8.18;7.40;;;6.10;56.30;;;;;;5187523;28;20042;-68
2021/03/14 13:00:14;;;;;;;8.00;7.30;;;6.10;55.50;;;;;;5185968;28;20187;-68
2021/03/14 13:02:46;;;;;;;8.13;7.43;;;5.90;54.70;;;;;;5189149;28;20123;-68
2021/03/14 13:05:18;;;;;;;8.13;7.50;;;5.80;55.50;;;;;;5181752;28;20034;-69
2021/03/14 13:07:49;;;;;;;7.93;7.13;;;5.80;56.40;;;;;;5171460;28;20537;-69
2021/03/14 13:10:22;;;;;;;8.45;7.70;;;5.70;54.30;;;;;;5185999;28;20127;-69
2021/03/14 13:12:53;;;;;;;8.15;7.35;;;5.70;56.60;;;;;;5187198;28;20056;-67
2021/03/14 13:15:26;;;;;;;8.45;7.65;;;5.80;56.70;;;;;;5181314;28;20115;-65
2021/03/14 13:17:57;;;;;;;8.10;7.32;;;5.80;59.70;;;;;;5184538;28;20045;-66
2021/03/14 13:20:29;;;;;;;8.15;7.38;;;5.70;60.20;;;;;;5188993;28;20033;-65
2021/03/14 13:23:19;;;;;;;9.00;8.20;;;5.40;62.70;;;;;;5209948;28;20041;-67
2021/03/14 13:25:50;;;;;;;7.78;7.07;;;5.30;64.80;;;;;;5204093;28;20045;-65
2021/03/14 13:28:22;;;;;;;8.55;7.75;;;5.20;63.30;;;;;;5208525;28;20112;-66
2021/03/14 13:30:54;;;;;;;9.50;8.48;;;5.30;62.60;;;;;;5199261;28;20057;-65
2021/03/14 13:33:26;;;;;;;8.40;7.60;;;5.50;61.50;;;;;;5201264;28;20106;-65
2021/03/14 13:35:57;;;;;;;8.50;7.80;;;5.50;61.50;;;;;;5204700;28;20061;-65
2021/03/14 13:38:29;;;;;;;7.70;6.90;;;5.50;61.60;;;;;;5205729;28;20060;-65
2021/03/14 13:41:00;;;;;;;7.47;6.78;;;5.50;59.00;;;;;;5204629;28;20417;-66
2021/03/14 13:43:32;;;;;;;7.45;6.75;;;5.50;59.50;;;;;;5204582;28;20111;-67
2021/03/14 13:46:05;;;;;;;13.70;12.25;;;5.50;59.40;;;;;;5197779;28;20512;-66
2021/03/14 13:48:36;;;;;;;7.82;7.13;;;5.60;59.20;;;;;;5205612;28;20577;-66